sensor_id;sensor_type;location;lat;lon;timestamp;pressure;altitude;pressure_sealevel;temperature;humidity
5954;BME280;3002;42.642;24.812;2023-11-18T00:00:25;95404.00;;;11.97;86.44
5954;BME280;3002;42.642;24.812;2023-11-18T00:02:50;95391.25;;;11.85;86.17
5954;BME280;3002;42.642;24.812;2023-11-18T00:05:16;95425.41;;;12.23;83.94
5954;BME280;3002;42.642;24.812;2023-11-18T00:07:43;95433.09;;;12.33;82.30
5954;BME280;3002;42.642;24.812;2023-11-18T00:10:09;95420.19;;;12.56;77.15
5954;BME280;3002;42.642;24.812;2023-11-18T00:12:36;95437.78;;;12.53;78.46
5954;BME280;3002;42.642;24.812;2023-11-18T00:15:03;95429.91;;;12.40;77.57
5954;BME280;3002;42.642;24.812;2023-11-18T00:17:30;95422.88;;;12.56;76.12
5954;BME280;3002;42.642;24.812;2023-11-18T00:19:56;95461.13;;;12.62;74.89
5954;BME280;3002;42.642;24.812;2023-11-18T00:22:21;95453.00;;;12.41;72.76
5954;BME280;3002;42.642;24.812;2023-11-18T00:24:46;95456.91;;;12.52;72.38
5954;BME280;3002;42.642;24.812;2023-11-18T00:27:12;95475.16;;;12.38;74.66
5954;BME280;3002;42.642;24.812;2023-11-18T00:29:40;95497.41;;;12.55;70.34
5954;BME280;3002;42.642;24.812;2023-11-18T00:32:06;95485.94;;;12.67;72.66
5954;BME280;3002;42.642;24.812;2023-11-18T00:34:35;95447.78;;;12.44;71.97
5954;BME280;3002;42.642;24.812;2023-11-18T00:37:00;95434.00;;;12.08;74.93
5954;BME280;3002;42.642;24.812;2023-11-18T00:39:26;95426.66;;;12.25;73.70
5954;BME280;3002;42.642;24.812;2023-11-18T00:41:52;95383.59;;;12.04;73.71
5954;BME280;3002;42.642;24.812;2023-11-18T00:44:18;95380.31;;;11.90;72.16
5954;BME280;3002;42.642;24.812;2023-11-18T00:46:43;95388.88;;;12.22;72.23
5954;BME280;3002;42.642;24.812;2023-11-18T00:49:09;95388.53;;;11.94;70.72
5954;BME280;3002;42.642;24.812;2023-11-18T00:51:36;95381.22;;;12.03;72.21
5954;BME280;3002;42.642;24.812;2023-11-18T00:54:03;95414.91;;;12.00;73.00
5954;BME280;3002;42.642;24.812;2023-11-18T00:56:33;95411.22;;;12.05;72.26
5954;BME280;3002;42.642;24.812;2023-11-18T00:58:59;95429.25;;;12.04;71.94
5954;BME280;3002;42.642;24.812;2023-11-18T01:01:26;95418.69;;;11.99;71.63
5954;BME280;3002;42.642;24.812;2023-11-18T01:03:52;95443.00;;;12.12;69.70
5954;BME280;3002;42.642;24.812;2023-11-18T01:06:18;95458.25;;;12.28;71.31
5954;BME280;3002;42.642;24.812;2023-11-18T01:08:44;95411.59;;;11.95;70.52
5954;BME280;3002;42.642;24.812;2023-11-18T01:11:10;95396.56;;;12.02;71.10
5954;BME280;3002;42.642;24.812;2023-11-18T01:13:35;95379.16;;;12.09;69.79
5954;BME280;3002;42.642;24.812;2023-11-18T01:16:01;95365.44;;;11.93;70.50
5954;BME280;3002;42.642;24.812;2023-11-18T01:18:27;95390.56;;;11.97;71.33
5954;BME280;3002;42.642;24.812;2023-11-18T01:20:58;95392.91;;;12.07;69.40
5954;BME280;3002;42.642;24.812;2023-11-18T01:23:24;95366.63;;;11.66;72.11
5954;BME280;3002;42.642;24.812;2023-11-18T01:25:49;95383.97;;;11.77;71.67
5954;BME280;3002;42.642;24.812;2023-11-18T01:28:16;95385.88;;;11.76;70.54
5954;BME280;3002;42.642;24.812;2023-11-18T01:30:42;95381.66;;;11.58;70.97
5954;BME280;3002;42.642;24.812;2023-11-18T01:33:10;95373.88;;;11.83;70.00
5954;BME280;3002;42.642;24.812;2023-11-18T01:35:36;95378.16;;;11.66;70.60
5954;BME280;3002;42.642;24.812;2023-11-18T01:38:01;95328.88;;;11.71;70.81
5954;BME280;3002;42.642;24.812;2023-11-18T01:40:27;95372.66;;;11.54;70.65
5954;BME280;3002;42.642;24.812;2023-11-18T01:42:55;95360.47;;;11.65;70.07
5954;BME280;3002;42.642;24.812;2023-11-18T01:45:21;95365.06;;;11.65;69.13
5954;BME280;3002;42.642;24.812;2023-11-18T01:47:46;95357.63;;;11.62;70.02
5954;BME280;3002;42.642;24.812;2023-11-18T01:50:17;95393.81;;;11.64;69.53
5954;BME280;3002;42.642;24.812;2023-11-18T01:52:43;95396.34;;;11.61;69.56
5954;BME280;3002;42.642;24.812;2023-11-18T01:55:09;95371.25;;;11.48;69.39
5954;BME280;3002;42.642;24.812;2023-11-18T01:57:35;95401.09;;;11.46;70.23
5954;BME280;3002;42.642;24.812;2023-11-18T02:00:02;95386.25;;;11.58;69.33
5954;BME280;3002;42.642;24.812;2023-11-18T02:02:32;95387.34;;;11.48;69.39
5954;BME280;3002;42.642;24.812;2023-11-18T02:04:59;95403.94;;;11.59;67.53
5954;BME280;3002;42.642;24.812;2023-11-18T02:07:27;95401.66;;;11.69;66.58
5954;BME280;3002;42.642;24.812;2023-11-18T02:09:54;95382.28;;;11.64;66.74
5954;BME280;3002;42.642;24.812;2023-11-18T02:12:29;95373.16;;;11.47;67.03
5954;BME280;3002;42.642;24.812;2023-11-18T02:14:57;95364.16;;;11.52;66.86
5954;BME280;3002;42.642;24.812;2023-11-18T02:17:24;95352.94;;;11.33;68.91
5954;BME280;3002;42.642;24.812;2023-11-18T02:19:58;95352.47;;;11.39;67.03
5954;BME280;3002;42.642;24.812;2023-11-18T02:22:25;95365.44;;;11.46;67.18
5954;BME280;3002;42.642;24.812;2023-11-18T02:24:51;95367.63;;;11.52;66.31
5954;BME280;3002;42.642;24.812;2023-11-18T02:27:16;95355.31;;;11.43;66.38
5954;BME280;3002;42.642;24.812;2023-11-18T02:29:46;95358.28;;;11.59;65.73
5954;BME280;3002;42.642;24.812;2023-11-18T02:32:36;95369.19;;;11.53;67.41
5954;BME280;3002;42.642;24.812;2023-11-18T02:35:10;95352.34;;;11.36;67.19
5954;BME280;3002;42.642;24.812;2023-11-18T02:37:39;95393.69;;;11.35;67.27
5954;BME280;3002;42.642;24.812;2023-11-18T02:40:09;95373.34;;;11.25;67.28
5954;BME280;3002;42.642;24.812;2023-11-18T02:42:40;95320.00;;;11.15;66.67
5954;BME280;3002;42.642;24.812;2023-11-18T02:45:10;95306.31;;;10.99;66.29
5954;BME280;3002;42.642;24.812;2023-11-18T02:47:38;95350.28;;;11.15;67.23
5954;BME280;3002;42.642;24.812;2023-11-18T02:50:09;95312.13;;;11.10;66.63
5954;BME280;3002;42.642;24.812;2023-11-18T02:52:39;95351.69;;;11.21;67.21
5954;BME280;3002;42.642;24.812;2023-11-18T02:55:08;95344.75;;;11.20;66.02
5954;BME280;3002;42.642;24.812;2023-11-18T02:57:38;95363.56;;;11.29;65.07
5954;BME280;3002;42.642;24.812;2023-11-18T03:00:07;95354.09;;;11.23;64.32
5954;BME280;3002;42.642;24.812;2023-11-18T03:02:49;95343.84;;;11.16;64.41
5954;BME280;3002;42.642;24.812;2023-11-18T03:05:17;95343.84;;;11.16;64.30
5954;BME280;3002;42.642;24.812;2023-11-18T03:07:49;95388.03;;;11.10;65.73
5954;BME280;3002;42.642;24.812;2023-11-18T03:10:20;95341.00;;;11.13;65.20
5954;BME280;3002;42.642;24.812;2023-11-18T03:12:50;95355.66;;;11.24;65.43
5954;BME280;3002;42.642;24.812;2023-11-18T03:15:16;95369.09;;;11.07;65.28
5954;BME280;3002;42.642;24.812;2023-11-18T03:17:51;95356.44;;;11.24;64.61
5954;BME280;3002;42.642;24.812;2023-11-18T03:20:21;95322.88;;;10.92;64.82
5954;BME280;3002;42.642;24.812;2023-11-18T03:22:48;95327.13;;;10.85;64.61
5954;BME280;3002;42.642;24.812;2023-11-18T03:25:18;95382.50;;;10.89;66.18
5954;BME280;3002;42.642;24.812;2023-11-18T03:27:45;95338.97;;;10.84;66.31
5954;BME280;3002;42.642;24.812;2023-11-18T03:30:11;95340.06;;;10.83;65.95
5954;BME280;3002;42.642;24.812;2023-11-18T03:32:38;95269.88;;;10.46;65.46
5954;BME280;3002;42.642;24.812;2023-11-18T03:35:04;95277.78;;;10.51;65.22
5954;BME280;3002;42.642;24.812;2023-11-18T03:37:40;95299.22;;;10.60;64.26
5954;BME280;3002;42.642;24.812;2023-11-18T03:40:11;95312.00;;;10.80;64.15
5954;BME280;3002;42.642;24.812;2023-11-18T03:42:41;95307.25;;;10.77;64.60
5954;BME280;3002;42.642;24.812;2023-11-18T03:45:07;95280.59;;;10.55;65.16
5954;BME280;3002;42.642;24.812;2023-11-18T03:47:34;95282.66;;;10.58;65.62
5954;BME280;3002;42.642;24.812;2023-11-18T03:50:00;95325.38;;;10.71;64.60
5954;BME280;3002;42.642;24.812;2023-11-18T03:52:26;95279.19;;;10.57;64.15
5954;BME280;3002;42.642;24.812;2023-11-18T03:54:53;95312.28;;;10.61;64.30
5954;BME280;3002;42.642;24.812;2023-11-18T03:57:20;95284.53;;;10.40;65.14
5954;BME280;3002;42.642;24.812;2023-11-18T03:59:45;95308.03;;;10.52;64.47
5954;BME280;3002;42.642;24.812;2023-11-18T04:02:11;95294.31;;;10.53;67.47
5954;BME280;3002;42.642;24.812;2023-11-18T04:04:37;95294.00;;;10.29;67.53
5954;BME280;3002;42.642;24.812;2023-11-18T04:07:03;95306.41;;;10.16;69.30
5954;BME280;3002;42.642;24.812;2023-11-18T04:09:29;95313.84;;;10.28;74.02
5954;BME280;3002;42.642;24.812;2023-11-18T04:11:55;95278.47;;;10.00;72.18
5954;BME280;3002;42.642;24.812;2023-11-18T04:14:20;95311.72;;;10.07;74.44
5954;BME280;3002;42.642;24.812;2023-11-18T04:16:46;95302.97;;;9.76;72.52
5954;BME280;3002;42.642;24.812;2023-11-18T04:19:12;95341.81;;;9.96;79.21
5954;BME280;3002;42.642;24.812;2023-11-18T04:21:38;95317.97;;;9.85;73.23
5954;BME280;3002;42.642;24.812;2023-11-18T04:24:03;95332.41;;;9.76;76.72
5954;BME280;3002;42.642;24.812;2023-11-18T04:26:31;95298.06;;;9.69;76.09
5954;BME280;3002;42.642;24.812;2023-11-18T04:28:56;95293.16;;;9.62;77.44
5954;BME280;3002;42.642;24.812;2023-11-18T04:31:22;95308.97;;;9.81;76.89
5954;BME280;3002;42.642;24.812;2023-11-18T04:33:48;95313.81;;;9.71;80.43
5954;BME280;3002;42.642;24.812;2023-11-18T04:36:14;95292.56;;;9.74;73.77
5954;BME280;3002;42.642;24.812;2023-11-18T04:38:41;95302.91;;;9.58;79.69
5954;BME280;3002;42.642;24.812;2023-11-18T04:41:07;95324.56;;;9.79;74.54
5954;BME280;3002;42.642;24.812;2023-11-18T04:43:32;95278.34;;;9.56;74.37
5954;BME280;3002;42.642;24.812;2023-11-18T04:45:59;95333.41;;;9.88;75.41
5954;BME280;3002;42.642;24.812;2023-11-18T04:48:24;95342.06;;;9.85;80.43
5954;BME280;3002;42.642;24.812;2023-11-18T04:50:50;95334.75;;;9.69;75.89
5954;BME280;3002;42.642;24.812;2023-11-18T04:53:15;95315.28;;;9.46;77.37
5954;BME280;3002;42.642;24.812;2023-11-18T04:55:41;95300.78;;;9.38;79.44
5954;BME280;3002;42.642;24.812;2023-11-18T04:58:06;95309.94;;;9.46;73.85
5954;BME280;3002;42.642;24.812;2023-11-18T05:00:33;95293.63;;;9.64;74.43
5954;BME280;3002;42.642;24.812;2023-11-18T05:02:58;95266.78;;;9.38;74.08
5954;BME280;3002;42.642;24.812;2023-11-18T05:05:24;95290.53;;;9.40;75.25
5954;BME280;3002;42.642;24.812;2023-11-18T05:07:53;95294.06;;;9.49;72.24
5954;BME280;3002;42.642;24.812;2023-11-18T05:10:19;95317.22;;;9.54;72.70
5954;BME280;3002;42.642;24.812;2023-11-18T05:12:44;95282.72;;;9.52;76.52
5954;BME280;3002;42.642;24.812;2023-11-18T05:15:10;95288.44;;;9.28;76.68
5954;BME280;3002;42.642;24.812;2023-11-18T05:17:36;95305.50;;;9.41;74.78
5954;BME280;3002;42.642;24.812;2023-11-18T05:20:03;95277.16;;;9.40;75.35
5954;BME280;3002;42.642;24.812;2023-11-18T05:22:29;95298.88;;;9.38;75.12
5954;BME280;3002;42.642;24.812;2023-11-18T05:24:54;95302.38;;;9.17;74.10
5954;BME280;3002;42.642;24.812;2023-11-18T05:27:20;95287.06;;;9.31;72.60
5954;BME280;3002;42.642;24.812;2023-11-18T05:29:45;95284.25;;;9.36;75.24
5954;BME280;3002;42.642;24.812;2023-11-18T05:32:13;95272.56;;;9.32;73.18
5954;BME280;3002;42.642;24.812;2023-11-18T05:34:39;95296.53;;;9.37;70.93
5954;BME280;3002;42.642;24.812;2023-11-18T05:37:05;95300.13;;;9.41;72.78
5954;BME280;3002;42.642;24.812;2023-11-18T05:39:30;95318.28;;;9.44;69.00
5954;BME280;3002;42.642;24.812;2023-11-18T05:41:59;95280.25;;;9.64;71.38
5954;BME280;3002;42.642;24.812;2023-11-18T05:44:25;95295.06;;;9.31;71.31
5954;BME280;3002;42.642;24.812;2023-11-18T05:46:57;95261.16;;;9.49;68.85
5954;BME280;3002;42.642;24.812;2023-11-18T05:49:23;95259.00;;;9.28;70.94
5954;BME280;3002;42.642;24.812;2023-11-18T05:51:49;95164.00;;;8.38;70.82
5954;BME280;3002;42.642;24.812;2023-11-18T05:54:16;95270.66;;;9.24;70.26
5954;BME280;3002;42.642;24.812;2023-11-18T05:56:41;95301.47;;;9.21;70.70
5954;BME280;3002;42.642;24.812;2023-11-18T05:59:06;95283.41;;;9.27;70.65
5954;BME280;3002;42.642;24.812;2023-11-18T06:01:33;95319.84;;;9.14;70.18
5954;BME280;3002;42.642;24.812;2023-11-18T06:04:00;95314.03;;;9.43;71.14
5954;BME280;3002;42.642;24.812;2023-11-18T06:06:26;95273.75;;;9.17;70.25
5954;BME280;3002;42.642;24.812;2023-11-18T06:08:52;95314.94;;;9.38;71.56
5954;BME280;3002;42.642;24.812;2023-11-18T06:11:19;95300.56;;;9.26;70.01
5954;BME280;3002;42.642;24.812;2023-11-18T06:13:49;94973.59;;;7.75;68.41
5954;BME280;3002;42.642;24.812;2023-11-18T06:16:17;95281.41;;;9.41;69.87
5954;BME280;3002;42.642;24.812;2023-11-18T06:18:46;95308.94;;;9.33;68.63
5954;BME280;3002;42.642;24.812;2023-11-18T06:21:15;95268.00;;;9.32;68.49
5954;BME280;3002;42.642;24.812;2023-11-18T06:23:42;95294.78;;;9.72;66.97
5954;BME280;3002;42.642;24.812;2023-11-18T06:26:08;95317.47;;;9.44;65.76
5954;BME280;3002;42.642;24.812;2023-11-18T06:28:36;95325.31;;;9.71;64.36
5954;BME280;3002;42.642;24.812;2023-11-18T06:31:02;95329.75;;;9.76;65.41
5954;BME280;3002;42.642;24.812;2023-11-18T06:33:27;95331.69;;;9.84;64.95
5954;BME280;3002;42.642;24.812;2023-11-18T06:35:54;95331.75;;;9.61;65.51
5954;BME280;3002;42.642;24.812;2023-11-18T06:38:20;95390.22;;;9.77;64.46
5954;BME280;3002;42.642;24.812;2023-11-18T06:40:46;95392.72;;;9.73;65.77
5954;BME280;3002;42.642;24.812;2023-11-18T06:43:11;95317.03;;;9.50;65.48
5954;BME280;3002;42.642;24.812;2023-11-18T06:45:42;95396.19;;;9.74;65.46
5954;BME280;3002;42.642;24.812;2023-11-18T06:48:08;95331.88;;;9.25;65.00
5954;BME280;3002;42.642;24.812;2023-11-18T06:50:34;95419.03;;;9.49;63.44
5954;BME280;3002;42.642;24.812;2023-11-18T06:53:01;95419.81;;;9.72;63.96
5954;BME280;3002;42.642;24.812;2023-11-18T06:55:27;95385.59;;;9.60;63.58
5954;BME280;3002;42.642;24.812;2023-11-18T06:57:52;95407.19;;;10.03;63.68
5954;BME280;3002;42.642;24.812;2023-11-18T07:00:20;95350.47;;;9.61;63.68
5954;BME280;3002;42.642;24.812;2023-11-18T07:02:47;95405.22;;;9.86;61.27
5954;BME280;3002;42.642;24.812;2023-11-18T07:05:13;95424.03;;;10.26;62.14
5954;BME280;3002;42.642;24.812;2023-11-18T07:07:40;95418.31;;;9.88;64.10
5954;BME280;3002;42.642;24.812;2023-11-18T07:10:06;95408.75;;;9.96;63.70
5954;BME280;3002;42.642;24.812;2023-11-18T07:12:33;95406.09;;;10.04;62.21
5954;BME280;3002;42.642;24.812;2023-11-18T07:15:04;95415.31;;;10.21;62.15
5954;BME280;3002;42.642;24.812;2023-11-18T07:17:30;95380.13;;;10.13;62.05
5954;BME280;3002;42.642;24.812;2023-11-18T07:19:55;95385.22;;;10.24;63.29
5954;BME280;3002;42.642;24.812;2023-11-18T07:22:21;95372.34;;;10.26;61.19
5954;BME280;3002;42.642;24.812;2023-11-18T07:24:47;95386.06;;;10.33;61.73
5954;BME280;3002;42.642;24.812;2023-11-18T07:27:12;95394.16;;;10.67;61.70
5954;BME280;3002;42.642;24.812;2023-11-18T07:29:38;95420.03;;;10.72;62.56
5954;BME280;3002;42.642;24.812;2023-11-18T07:32:04;95398.72;;;10.50;62.15
5954;BME280;3002;42.642;24.812;2023-11-18T07:34:31;95433.06;;;10.39;64.22
5954;BME280;3002;42.642;24.812;2023-11-18T07:36:58;95422.63;;;10.37;62.88
5954;BME280;3002;42.642;24.812;2023-11-18T07:39:24;95420.09;;;10.01;63.64
5954;BME280;3002;42.642;24.812;2023-11-18T07:41:50;95358.19;;;9.32;64.40
5954;BME280;3002;42.642;24.812;2023-11-18T07:44:15;95440.06;;;9.95;64.09
5954;BME280;3002;42.642;24.812;2023-11-18T07:46:41;95427.72;;;10.08;64.35
5954;BME280;3002;42.642;24.812;2023-11-18T07:49:08;95422.75;;;10.24;63.57
5954;BME280;3002;42.642;24.812;2023-11-18T07:51:34;95419.53;;;10.53;63.22
5954;BME280;3002;42.642;24.812;2023-11-18T07:53:59;95415.88;;;10.40;63.54
5954;BME280;3002;42.642;24.812;2023-11-18T07:56:25;95391.38;;;9.84;63.15
5954;BME280;3002;42.642;24.812;2023-11-18T07:58:52;95402.50;;;10.09;64.10
5954;BME280;3002;42.642;24.812;2023-11-18T08:01:17;95404.25;;;9.82;63.47
5954;BME280;3002;42.642;24.812;2023-11-18T08:03:44;95398.66;;;10.01;61.81
5954;BME280;3002;42.642;24.812;2023-11-18T08:06:10;95393.38;;;10.18;62.96
5954;BME280;3002;42.642;24.812;2023-11-18T08:08:37;95381.47;;;10.33;62.89
5954;BME280;3002;42.642;24.812;2023-11-18T08:11:05;95395.69;;;10.03;62.94
5954;BME280;3002;42.642;24.812;2023-11-18T08:13:31;95359.81;;;9.73;62.95
5954;BME280;3002;42.642;24.812;2023-11-18T08:15:56;95326.63;;;9.43;64.13
5954;BME280;3002;42.642;24.812;2023-11-18T08:18:23;95383.22;;;9.98;64.53
5954;BME280;3002;42.642;24.812;2023-11-18T08:20:49;95383.63;;;10.14;64.70
5954;BME280;3002;42.642;24.812;2023-11-18T08:23:15;95347.44;;;9.85;63.50
5954;BME280;3002;42.642;24.812;2023-11-18T08:25:41;95374.34;;;9.80;63.40
5954;BME280;3002;42.642;24.812;2023-11-18T08:28:07;95381.38;;;9.45;62.42
5954;BME280;3002;42.642;24.812;2023-11-18T08:30:34;95374.06;;;9.90;62.32
5954;BME280;3002;42.642;24.812;2023-11-18T08:32:59;95350.50;;;9.39;63.02
5954;BME280;3002;42.642;24.812;2023-11-18T08:35:25;95356.88;;;9.29;63.96
5954;BME280;3002;42.642;24.812;2023-11-18T08:37:50;95404.53;;;9.72;63.98
5954;BME280;3002;42.642;24.812;2023-11-18T08:40:16;95404.88;;;9.26;64.44
5954;BME280;3002;42.642;24.812;2023-11-18T08:42:46;95406.34;;;9.32;63.17
5954;BME280;3002;42.642;24.812;2023-11-18T08:45:19;95427.34;;;9.47;64.33
5954;BME280;3002;42.642;24.812;2023-11-18T08:47:59;95403.31;;;9.78;63.61
5954;BME280;3002;42.642;24.812;2023-11-18T08:50:26;95391.16;;;9.19;63.24
5954;BME280;3002;42.642;24.812;2023-11-18T08:52:53;95396.53;;;9.27;65.30
5954;BME280;3002;42.642;24.812;2023-11-18T08:55:30;95432.44;;;9.49;65.93
5954;BME280;3002;42.642;24.812;2023-11-18T08:58:05;95425.41;;;9.17;65.15
5954;BME280;3002;42.642;24.812;2023-11-18T09:00:42;95411.06;;;8.90;67.08
5954;BME280;3002;42.642;24.812;2023-11-18T09:03:15;95432.34;;;9.62;64.81
5954;BME280;3002;42.642;24.812;2023-11-18T09:05:51;95454.97;;;10.10;64.00
5954;BME280;3002;42.642;24.812;2023-11-18T09:08:27;95434.13;;;9.98;63.90
5954;BME280;3002;42.642;24.812;2023-11-18T09:11:08;95428.53;;;9.86;61.52
5954;BME280;3002;42.642;24.812;2023-11-18T09:13:36;95432.06;;;9.42;63.46
5954;BME280;3002;42.642;24.812;2023-11-18T09:16:03;95463.50;;;9.89;63.51
5954;BME280;3002;42.642;24.812;2023-11-18T09:18:30;95472.22;;;9.95;62.92
5954;BME280;3002;42.642;24.812;2023-11-18T09:20:59;95391.41;;;9.62;62.69
5954;BME280;3002;42.642;24.812;2023-11-18T09:23:26;95474.94;;;10.04;63.19
5954;BME280;3002;42.642;24.812;2023-11-18T09:25:53;95450.88;;;10.12;62.01
5954;BME280;3002;42.642;24.812;2023-11-18T09:28:20;95437.34;;;10.17;62.00
5954;BME280;3002;42.642;24.812;2023-11-18T09:30:46;95430.66;;;9.67;62.39
5954;BME280;3002;42.642;24.812;2023-11-18T09:33:22;95439.50;;;9.53;62.10
5954;BME280;3002;42.642;24.812;2023-11-18T09:35:52;95402.44;;;9.91;61.32
5954;BME280;3002;42.642;24.812;2023-11-18T09:38:21;95405.69;;;10.19;60.65
5954;BME280;3002;42.642;24.812;2023-11-18T09:40:49;95398.72;;;10.18;61.34
5954;BME280;3002;42.642;24.812;2023-11-18T09:43:18;95356.47;;;9.36;60.93
5954;BME280;3002;42.642;24.812;2023-11-18T09:45:45;95367.75;;;9.95;60.59
5954;BME280;3002;42.642;24.812;2023-11-18T09:48:17;95425.00;;;10.39;62.31
5954;BME280;3002;42.642;24.812;2023-11-18T09:50:48;95401.13;;;9.89;59.89
5954;BME280;3002;42.642;24.812;2023-11-18T09:53:17;95412.72;;;10.07;60.49
5954;BME280;3002;42.642;24.812;2023-11-18T09:55:52;95392.06;;;10.47;60.27
5954;BME280;3002;42.642;24.812;2023-11-18T09:58:25;95402.31;;;10.05;60.71
5954;BME280;3002;42.642;24.812;2023-11-18T10:00:57;95377.75;;;10.03;61.56
5954;BME280;3002;42.642;24.812;2023-11-18T10:03:24;95389.75;;;9.83;62.98
5954;BME280;3002;42.642;24.812;2023-11-18T10:05:51;95376.81;;;9.77;61.83
5954;BME280;3002;42.642;24.812;2023-11-18T10:08:20;95366.38;;;9.98;61.32
5954;BME280;3002;42.642;24.812;2023-11-18T10:10:51;95376.63;;;10.61;59.49
5954;BME280;3002;42.642;24.812;2023-11-18T10:13:16;95356.06;;;9.82;61.81
5954;BME280;3002;42.642;24.812;2023-11-18T10:15:49;95361.91;;;9.84;61.66
5954;BME280;3002;42.642;24.812;2023-11-18T10:18:17;95389.72;;;10.06;60.44
5954;BME280;3002;42.642;24.812;2023-11-18T10:20:49;95431.25;;;9.95;62.03
5954;BME280;3002;42.642;24.812;2023-11-18T10:23:18;95409.25;;;9.75;61.33
5954;BME280;3002;42.642;24.812;2023-11-18T10:25:50;95437.91;;;10.06;62.84
5954;BME280;3002;42.642;24.812;2023-11-18T10:28:31;95382.59;;;9.61;62.88
5954;BME280;3002;42.642;24.812;2023-11-18T10:33:39;95315.41;;;9.72;61.08
5954;BME280;3002;42.642;24.812;2023-11-18T10:36:20;95425.28;;;9.67;62.02
5954;BME280;3002;42.642;24.812;2023-11-18T10:38:49;95384.03;;;9.36;59.92
5954;BME280;3002;42.642;24.812;2023-11-18T10:41:15;95351.78;;;9.73;59.35
5954;BME280;3002;42.642;24.812;2023-11-18T10:43:45;95389.44;;;10.16;60.72
5954;BME280;3002;42.642;24.812;2023-11-18T10:46:15;95367.94;;;10.47;57.23
5954;BME280;3002;42.642;24.812;2023-11-18T10:48:47;95384.31;;;10.28;58.43
5954;BME280;3002;42.642;24.812;2023-11-18T10:51:14;95406.91;;;9.74;58.34
5954;BME280;3002;42.642;24.812;2023-11-18T10:53:47;95345.94;;;10.10;59.10
5954;BME280;3002;42.642;24.812;2023-11-18T10:56:24;95379.72;;;9.89;59.27
5954;BME280;3002;42.642;24.812;2023-11-18T10:59:06;95385.28;;;9.61;60.05
5954;BME280;3002;42.642;24.812;2023-11-18T11:01:34;95370.91;;;9.88;59.97
5954;BME280;3002;42.642;24.812;2023-11-18T11:04:04;95333.63;;;9.61;60.94
5954;BME280;3002;42.642;24.812;2023-11-18T11:06:31;95357.47;;;9.80;59.58
5954;BME280;3002;42.642;24.812;2023-11-18T11:08:58;95354.03;;;9.48;61.19
5954;BME280;3002;42.642;24.812;2023-11-18T11:11:40;95385.56;;;9.91;60.49
5954;BME280;3002;42.642;24.812;2023-11-18T11:14:14;95362.72;;;9.93;60.22
5954;BME280;3002;42.642;24.812;2023-11-18T11:16:45;95308.69;;;11.56;56.16
5954;BME280;3002;42.642;24.812;2023-11-18T11:19:25;95343.81;;;11.34;56.81
5954;BME280;3002;42.642;24.812;2023-11-18T11:22:07;95364.59;;;12.90;54.71
5954;BME280;3002;42.642;24.812;2023-11-18T11:24:52;95324.66;;;11.44;56.87
5954;BME280;3002;42.642;24.812;2023-11-18T11:27:33;95366.31;;;11.67;56.60
5954;BME280;3002;42.642;24.812;2023-11-18T11:32:45;95366.34;;;10.29;59.89
5954;BME280;3002;42.642;24.812;2023-11-18T11:35:36;95412.13;;;10.50;60.15
5954;BME280;3002;42.642;24.812;2023-11-18T11:38:07;95390.50;;;10.46;58.84
5954;BME280;3002;42.642;24.812;2023-11-18T11:40:38;95302.09;;;8.96;61.12
5954;BME280;3002;42.642;24.812;2023-11-18T11:43:09;95303.06;;;8.55;63.45
5954;BME280;3002;42.642;24.812;2023-11-18T11:45:36;95331.03;;;9.87;61.05
5954;BME280;3002;42.642;24.812;2023-11-18T11:48:02;95400.78;;;9.82;61.95
5954;BME280;3002;42.642;24.812;2023-11-18T11:51:16;95344.03;;;10.02;61.78
5954;BME280;3002;42.642;24.812;2023-11-18T11:54:12;95289.41;;;9.32;62.75
5954;BME280;3002;42.642;24.812;2023-11-18T11:56:44;95348.75;;;9.34;64.74
5954;BME280;3002;42.642;24.812;2023-11-18T12:02:14;95286.56;;;9.69;62.87
5954;BME280;3002;42.642;24.812;2023-11-18T12:04:46;95291.03;;;9.42;63.14
5954;BME280;3002;42.642;24.812;2023-11-18T12:07:19;95304.34;;;9.02;63.47
5954;BME280;3002;42.642;24.812;2023-11-18T12:09:46;95316.41;;;9.22;65.04
5954;BME280;3002;42.642;24.812;2023-11-18T12:12:18;95337.91;;;9.08;64.69
5954;BME280;3002;42.642;24.812;2023-11-18T12:14:51;95264.75;;;8.82;64.67
5954;BME280;3002;42.642;24.812;2023-11-18T12:17:18;95283.56;;;8.54;64.52
5954;BME280;3002;42.642;24.812;2023-11-18T12:19:48;95349.94;;;8.97;64.67
5954;BME280;3002;42.642;24.812;2023-11-18T12:22:15;95300.75;;;9.69;64.20
5954;BME280;3002;42.642;24.812;2023-11-18T12:24:45;95298.81;;;8.99;65.33
5954;BME280;3002;42.642;24.812;2023-11-18T12:27:13;95269.94;;;8.87;65.04
5954;BME280;3002;42.642;24.812;2023-11-18T12:29:42;95237.06;;;8.78;65.99
5954;BME280;3002;42.642;24.812;2023-11-18T12:32:11;95238.75;;;8.51;66.61
5954;BME280;3002;42.642;24.812;2023-11-18T12:34:54;95286.56;;;8.53;67.15
5954;BME280;3002;42.642;24.812;2023-11-18T12:37:48;95254.78;;;8.74;67.17
5954;BME280;3002;42.642;24.812;2023-11-18T12:43:09;95239.66;;;8.33;69.54
5954;BME280;3002;42.642;24.812;2023-11-18T12:46:17;95240.16;;;8.49;70.04
5954;BME280;3002;42.642;24.812;2023-11-18T12:48:53;95143.16;;;8.03;70.84
5954;BME280;3002;42.642;24.812;2023-11-18T12:51:22;95270.53;;;8.39;69.80
5954;BME280;3002;42.642;24.812;2023-11-18T12:53:48;95285.22;;;8.64;71.28
5954;BME280;3002;42.642;24.812;2023-11-18T12:56:17;95189.09;;;8.14;70.16
5954;BME280;3002;42.642;24.812;2023-11-18T12:58:45;95244.81;;;8.07;73.06
5954;BME280;3002;42.642;24.812;2023-11-18T13:01:11;95285.69;;;8.44;75.32
5954;BME280;3002;42.642;24.812;2023-11-18T13:03:40;95250.66;;;8.31;71.20
5954;BME280;3002;42.642;24.812;2023-11-18T13:06:11;95252.50;;;8.22;69.14
5954;BME280;3002;42.642;24.812;2023-11-18T13:08:40;95297.78;;;8.41;72.95
5954;BME280;3002;42.642;24.812;2023-11-18T13:11:08;95312.56;;;8.33;72.85
5954;BME280;3002;42.642;24.812;2023-11-18T13:13:41;95240.28;;;8.30;71.62
5954;BME280;3002;42.642;24.812;2023-11-18T13:16:07;95266.53;;;8.14;73.65
5954;BME280;3002;42.642;24.812;2023-11-18T13:18:43;95269.56;;;7.85;73.04
5954;BME280;3002;42.642;24.812;2023-11-18T13:21:14;95228.59;;;8.03;72.67
5954;BME280;3002;42.642;24.812;2023-11-18T13:23:40;95216.19;;;7.85;71.13
5954;BME280;3002;42.642;24.812;2023-11-18T13:26:07;95257.50;;;7.88;73.42
5954;BME280;3002;42.642;24.812;2023-11-18T13:28:35;95091.72;;;7.17;70.31
5954;BME280;3002;42.642;24.812;2023-11-18T13:31:00;95179.69;;;7.44;72.50
5954;BME280;3002;42.642;24.812;2023-11-18T13:33:26;95281.22;;;7.89;72.92
5954;BME280;3002;42.642;24.812;2023-11-18T13:35:57;95087.97;;;7.68;69.25